地図

経路データ

SID SEASON NUMBER BASIN SUBBASIN NAME ISO_TIME NATURE LAT LON WMO_WIND WMO_PRES WMO_AGENCY TRACK_TYPE DIST2LAND LANDFALL IFLAG USA_AGENCY USA_ATCF_ID USA_LAT USA_LON USA_RECORD USA_STATUS USA_WIND USA_PRES USA_SSHS USA_R34_NE USA_R34_SE USA_R34_SW USA_R34_NW USA_R50_NE USA_R50_SE USA_R50_SW USA_R50_NW USA_R64_NE USA_R64_SE USA_R64_SW USA_R64_NW USA_POCI USA_ROCI USA_RMW USA_EYE TOKYO_LAT TOKYO_LON TOKYO_GRADE TOKYO_WIND TOKYO_PRES TOKYO_R50_DIR TOKYO_R50_LONG TOKYO_R50_SHORT TOKYO_R30_DIR TOKYO_R30_LONG TOKYO_R30_SHORT TOKYO_LAND CMA_LAT CMA_LON CMA_CAT CMA_WIND CMA_PRES HKO_LAT HKO_LON HKO_CAT HKO_WIND HKO_PRES NEWDELHI_LAT NEWDELHI_LON NEWDELHI_GRADE NEWDELHI_WIND NEWDELHI_PRES NEWDELHI_CI NEWDELHI_DP NEWDELHI_POCI REUNION_LAT REUNION_LON REUNION_TYPE REUNION_WIND REUNION_PRES REUNION_TNUM REUNION_CI REUNION_RMW REUNION_R34_NE REUNION_R34_SE REUNION_R34_SW REUNION_R34_NW REUNION_R50_NE REUNION_R50_SE REUNION_R50_SW REUNION_R50_NW REUNION_R64_NE REUNION_R64_SE REUNION_R64_SW REUNION_R64_NW BOM_LAT BOM_LON BOM_TYPE BOM_WIND BOM_PRES BOM_TNUM BOM_CI BOM_RMW BOM_R34_NE BOM_R34_SE BOM_R34_SW BOM_R34_NW BOM_R50_NE BOM_R50_SE BOM_R50_SW BOM_R50_NW BOM_R64_NE BOM_R64_SE BOM_R64_SW BOM_R64_NW BOM_ROCI BOM_POCI BOM_EYE BOM_POS_METHOD BOM_PRES_METHOD NADI_LAT NADI_LON NADI_CAT NADI_WIND NADI_PRES WELLINGTON_LAT WELLINGTON_LON WELLINGTON_WIND WELLINGTON_PRES DS824_LAT DS824_LON DS824_STAGE DS824_WIND DS824_PRES TD9636_LAT TD9636_LON TD9636_STAGE TD9636_WIND TD9636_PRES TD9635_LAT TD9635_LON TD9635_WIND TD9635_PRES TD9635_ROCI NEUMANN_LAT NEUMANN_LON NEUMANN_CLASS NEUMANN_WIND NEUMANN_PRES MLC_LAT MLC_LON MLC_CLASS MLC_WIND MLC_PRES USA_GUST BOM_GUST BOM_GUST_PER REUNION_GUST REUNION_GUST_PER USA_SEAHGT USA_SEARAD_NE USA_SEARAD_SE USA_SEARAD_SW USA_SEARAD_NW STORM_SPEED STORM_DIR
1999342N08116 1999 100 WP MM NOT_NAMED 1999-12-07 12:00:00 NR 7.90000 116.000 main 136 136 O_____________ jtwc_wp WP321999 7.90000 116.000 20 -1 6 270
1999342N08116 1999 100 WP MM NOT_NAMED 1999-12-07 15:00:00 NR 7.90004 115.695 main 157 157 P_____________ WP321999 7.90004 115.695 20 -1 6 270
1999342N08116 1999 100 WP MM NOT_NAMED 1999-12-07 18:00:00 NR 7.90000 115.400 main 182 182 O_____________ jtwc_wp WP321999 7.90000 115.400 20 -1 6 270
1999342N08116 1999 100 WP MM NOT_NAMED 1999-12-07 21:00:00 NR 7.89999 115.128 main 209 209 P_____________ WP321999 7.89999 115.128 20 -1 5 270
1999342N08116 1999 100 WP MM NOT_NAMED 1999-12-08 00:00:00 NR 7.90000 114.900 main 228 228 O_____________ jtwc_wp WP321999 7.90000 114.900 20 -1 4 271
1999342N08116 1999 100 WP MM NOT_NAMED 1999-12-08 03:00:00 NR 7.90746 114.750 main 237 237 P_____________ WP321999 7.90746 114.750 20 -1 3 270
1999342N08116 1999 100 WP MM NOT_NAMED 1999-12-08 06:00:00 NR 7.90000 114.600 main 257 257 O_____________ jtwc_wp WP321999 7.90000 114.600 20 -1 4 263
1999342N08116 1999 100 WP MM NOT_NAMED 1999-12-08 09:00:00 NR 7.85751 114.365 main 275 275 P_____________ WP321999 7.85751 114.365 20 -1 5 259
1999342N08116 1999 100 WP MM NOT_NAMED 1999-12-08 12:00:00 NR 7.80000 114.100 main 291 291 O_____________ jtwc_wp WP321999 7.80000 114.100 20 -1 5 258
1999342N08116 1999 100 WP MM NOT_NAMED 1999-12-08 15:00:00 NR 7.75000 113.843 main 315 308 P_____________ WP321999 7.75000 113.843 20 -1 5 259
1999342N08116 1999 100 WP MM NOT_NAMED 1999-12-08 18:00:00 NR 7.70000 113.600 main 323 323 O_____________ jtwc_wp WP321999 7.70000 113.600 20 -1 5 257
1999342N08116 1999 100 WP MM NOT_NAMED 1999-12-08 21:00:00 NR 7.64998 113.393 main 330 330 P_____________ WP321999 7.64998 113.393 20 -1 4 256
1999342N08116 1999 100 WP MM NOT_NAMED 1999-12-09 00:00:00 NR 7.60000 113.200 main 346 343 O_____________ jtwc_wp WP321999 7.60000 113.200 20 -1 4 255
1999342N08116 1999 100 WP MM NOT_NAMED 1999-12-09 03:00:00 NR 7.54249 113.000 main 343 336 P_____________ WP321999 7.54249 113.000 20 -1 4 238
1999342N08116 1999 100 WP MM NOT_NAMED 1999-12-09 06:00:00 TS 7.40000 112.880 main 336 335 O_O___________ jtwc_wp WP321999 7.50000 112.800 20 -1 7.00000 113.200 1 23 1004 4 238
1999342N08116 1999 100 WP MM NOT_NAMED 1999-12-09 09:00:00 TS 7.34918 112.688 main 335 335 P_P___________ WP321999 7.49249 112.600 20 -1 7.06254 112.865 1 26 1003 4 266
1999342N08116 1999 100 WP MM NOT_NAMED 1999-12-09 12:00:00 TS 7.37143 112.443 main 360 360 O_O___________ jtwc_wp WP321999 7.50000 112.400 20 -1 7.20000 112.500 1 29 1002 5 283
1999342N08116 1999 100 WP MM NOT_NAMED 1999-12-09 15:00:00 TS 7.47493 112.159 main 381 381 P_P___________ WP321999 7.49992 112.238 22 -1 7.44995 112.080 1 29 1002 7 290
1999342N08116 1999 100 WP MM NOT_NAMED 1999-12-09 18:00:00 TS 7.60000 111.800 main 415 415 O_O___________ jtwc_wp WP321999 7.50000 112.000 25 -1 7.70000 111.600 1 29 1002 9 283
1999342N08116 1999 100 WP MM NOT_NAMED 1999-12-09 21:00:00 TS 7.66881 111.311 main 458 451 P_P___________ WP321999 7.50000 111.602 27 -1 7.83762 111.020 1 29 1002 10 276
1999342N08116 1999 100 WP MM NOT_NAMED 1999-12-10 00:00:00 TS 7.70000 110.800 main 451 426 O_O___________ jtwc_wp WP321999 7.50000 111.100 30 -1 7.90000 110.500 1 29 1002 9 272
1999342N08116 1999 100 WP MM NOT_NAMED 1999-12-10 03:00:00 TS 7.70370 110.377 main 426 401 P_P___________ WP321999 7.50754 110.550 30 -1 7.89987 110.205 1 29 1001 8 270
1999342N08116 1999 100 WP MM NOT_NAMED 1999-12-10 06:00:00 TS 7.70000 110.000 main 401 379 O_O___________ jtwc_wp WP321999 7.50000 110.000 30 -1 7.90000 110.000 1 29 1000 8 272
1999342N08116 1999 100 WP MM NOT_NAMED 1999-12-10 09:00:00 TS 7.72874 109.620 main 379 365 P_P___________ WP321999 7.46498 109.505 30 -1 7.99251 109.735 1 29 1000 7 274
1999342N08116 1999 100 WP MM NOT_NAMED 1999-12-10 12:00:00 TS 7.75000 109.300 main 354 350 O_O___________ jtwc_wp WP321999 7.40000 109.100 30 -1 8.10000 109.500 1 29 1000 5 270
1999342N08116 1999 100 WP MM NOT_NAMED 1999-12-10 15:00:00 TS 7.72870 109.074 main 354 337 P_P___________ WP321999 7.29994 108.805 30 -1 8.15746 109.342 1 29 1001 5 255
1999342N08116 1999 100 WP MM NOT_NAMED 1999-12-10 18:00:00 TS 7.62857 108.857 main 345 329 O_O___________ jtwc_wp WP321999 7.20000 108.600 30 -1 8.20000 109.200 1 29 1002 5 244
1999342N08116 1999 100 WP MM NOT_NAMED 1999-12-10 21:00:00 TS 7.51083 108.628 main 329 321 P_P___________ WP321999 7.14248 108.435 25 -1 8.24754 109.015 1 26 1003 5 242
1999342N08116 1999 100 WP MM NOT_NAMED 1999-12-11 00:00:00 TS 7.40000 108.425 main 322 322 O_O___________ jtwc_wp WP321999 7.10000 108.300 20 -1 8.30000 108.800 1 23 1004 7 226
1999342N08116 1999 100 WP MM NOT_NAMED 1999-12-11 03:00:00 NR 7.05252 108.155 main 334 324 P_____________ WP321999 7.05252 108.155 20 -1 1 6 227
1999342N08116 1999 100 WP MM NOT_NAMED 1999-12-11 06:00:00 NR 7.00000 108.000 main 325 O_____________ jtwc_wp WP321999 7.00000 108.000 20 -1 3 251

デジタル台風データ・検索

IBTrACS Databaseについて

本データベースは、米国NOAAが公開する1842年以降の世界の熱帯低気圧のベストトラックデータアーカイブInternational Best Track Archive for Climate Stewardship (IBTrACS)を、ウェブで閲覧しやすい形式に変換したものです。

最終更新日:2021-10-25